Relevés horaires Matro (Suisse)


Relevés horaires à Matro - Dimanche 30 Janv. 2022
Heure UTC1 Température [°C] Vent [km/h] Hum. [%] Pres.4 [hPa] Visi. [Km] Nébu. [octa] Préc.5 [mm] Cond.
2m. Res. Ros. Dir.2 Vit. Moy. Raf.3
23:00 1.5 -3.4 -28.2 NO 20.4 -- 37.0 9 850(-0.8/3h) -- -- -- --
22:00 1.2 -5.1 -27.2 NO 31.5 -- 40.7 10 850(-0.7/3h) -- -- -- --
21:00 0.9 -5.4 -25.8 NO 31.5 -- 64.8 11 850(-0.4/3h) -- -- -- --
20:00 0.6 -6.9 -25.4 NO 44.4 -- 64.8 12 850(-0.2/3h) -- -- -- --
19:00 0.2 -7.7 -23.3 NO 48.2 -- 61.1 15 850(0.0/3h) -- -- -- --
18:00 0.4 -7.3 -22.1 NO 46.3 -- 77.8 16 850(0.0/3h) -- -- -- --
17:00 0.1 -7.7 -20.5 NO 46.3 -- 63.0 19 850(-0.1/3h) -- -- -- --
16:00 0.7 -6.8 -20.9 NO 44.4 -- 72.2 18 850(-0.7/3h) -- -- -- --
15:00 1.6 -5.8 -25.3 NO 48.2 -- 77.8 11 850(-1.1/3h) -- -- -- --
14:00 2.0 -5 -23.1 NO 44.4 -- 70.4 13 850(-1.3/3h) -- -- -- --
13:00 2.3 -4.1 -23.2 NO 37.0 -- 66.7 13 850(-0.8/3h) -- -- -- --
12:00 1.8 -4.3 -18.4 NO 31.5 -- 94.5 21 850(0.0/3h) -- -- -- --
11:00 1.2 -6 -17.2 NO 42.6 -- 72.2 24 850(0.5/3h) -- -- -- --
10:00 0.8 -6.5 -14.8 NO 42.6 -- 66.7 30 850(1.0/3h) -- -- -- --
09:00 1.4 -5.9 -16.7 NO 44.4 -- 94.5 24 850(0.6/3h) -- -- -- --
08:00 1.5 -6.1 -16.9 NO 50.0 -- 94.5 24 850(0.1/3h) -- -- -- --
07:00 1.7 -6.4 -17.4 NO 59.3 -- 90.7 23 850(-0.5/3h) -- -- -- --
06:00 1.7 -6.2 -16.9 NNO 55.6 -- 87.0 24 850(-0.8/3h) -- -- -- --
05:00 1.9 -5.8 -15.8 NO 53.7 -- 79.6 25 850(-0.9/3h) -- -- -- --
04:00 1.9 -5.4 -13.4 NNO 48.2 -- 70.4 31 850(-1.1/3h) -- -- -- --
03:00 2.0 -5.4 -10.5 NNO 50.0 -- 87.0 39 850(-1.7/3h) -- -- -- --
02:00 1.8 -5.8 -8.9 NO 51.9 -- 79.6 45 850(-1.6/3h) -- -- -- --
01:00 1.7 -6.4 -7.2 NO 59.3 -- 87.0 52 850(-1.4/3h) -- -- -- --
00:00 1.6 -6.3 -6.8 NO 55.6 -- 101.9 54 850(-0.9/3h) -- -- -- --

1 Coordinated Universal Time. Actuellement il est 05:00 locale et 03:00 UTC.

2 Le vent souffle depuis la direction indiquée vers la direction oposée.

3 Les rafales max. sont disponible 40 min après l'heure du relevé.

4 Pour les stations d'altitude (plus de 600m) le géopotentiel du niveau le plus proche de la pression obligatoire est indiqué.

5 Les stations disposant d'un diffuseur peuvent indiquer "trace". Cela signifie que des précipitations ont touchés le sol mais que la quantité est inférieure à 0.1 mm.

Copyright

Les données affichées sur cette page sont la propriété exclusive de Météo Suisse.

Récapitulatif de la journée
Température [°C] Vent [km/h] Ensoleillement4 [h] Precipitations totale5 [mm] Pression [Hpa]
Min1 Max.2 Moy.3 Max. Min Max.
1.0 2.5 0 101.9 8 h 48 min 0 850.0 850.0

1 Température minimale relevée entre 18:00 UTC la veille et 18:00 UTC le jour donné.

2 Température maximale relevée entre 06:00 UTC le jour donné et 06:00 UTC le lendemain.

3 Vent moyen de la journée basé sur les relevés horaires.

4 Ensoleillement en heures relevé entre 06:00 UTC la veille et 06:00 UTC le jour donné.

5 Précipitations totales tombées entre 06:00 UTC la jour donné et 06:00 UTC le lendemain.

Graphiques horaires